createdAt,value
2022-11-10T00:01:43.172Z,101465.56
2022-11-10T00:06:47.266Z,101461.41
2022-11-10T00:11:48.775Z,101466.00
2022-11-10T00:17:02.444Z,101468.56
2022-11-10T00:22:03.925Z,101466.56
2022-11-10T00:27:05.736Z,101483.63
2022-11-10T00:32:08.450Z,101484.34
2022-11-10T00:37:09.900Z,101502.84
2022-11-10T00:42:11.684Z,101504.81
2022-11-10T00:47:13.349Z,101520.72
2022-11-10T00:52:14.889Z,101529.31
2022-11-10T00:57:16.348Z,101518.13
2022-11-10T01:02:17.853Z,101509.25
2022-11-10T01:07:19.358Z,101522.28
2022-11-10T01:12:20.824Z,101519.56
2022-11-10T01:17:22.369Z,101512.94
2022-11-10T01:22:23.852Z,101506.22
2022-11-10T01:27:25.301Z,101519.72
2022-11-10T01:32:26.774Z,101530.91
2022-11-10T01:37:28.327Z,101544.38
2022-11-10T01:42:44.226Z,101549.56
2022-11-10T01:47:45.789Z,101558.00
2022-11-10T01:52:50.430Z,101566.50
2022-11-10T01:57:51.973Z,101554.56
2022-11-10T02:03:10.425Z,101553.41
2022-11-10T02:08:15.768Z,101542.22
2022-11-10T02:13:17.256Z,101557.44
2022-11-10T02:18:18.809Z,101566.03
2022-11-10T02:23:53.643Z,101573.78
2022-11-10T02:28:55.155Z,101565.88
2022-11-10T02:33:56.627Z,101577.47
2022-11-10T02:38:58.189Z,101594.44
2022-11-10T02:43:59.950Z,101605.19
2022-11-10T02:49:01.449Z,101606.59
2022-11-10T02:54:02.947Z,101599.16
2022-11-10T02:59:04.985Z,101600.88
2022-11-10T03:04:07.373Z,101603.00
2022-11-10T03:09:08.855Z,101592.69
2022-11-10T03:14:10.356Z,101612.47
2022-11-10T03:19:11.813Z,101628.41
2022-11-10T03:24:13.306Z,101629.56
2022-11-10T03:29:14.785Z,101635.72
2022-11-10T03:34:16.297Z,101649.22
2022-11-10T03:39:17.729Z,101666.75
2022-11-10T03:44:19.180Z,101678.69
2022-11-10T03:49:20.631Z,101691.03
2022-11-10T03:54:22.205Z,101686.44
2022-11-10T03:59:23.670Z,101694.72
2022-11-10T04:04:43.908Z,101697.03
2022-11-10T04:09:45.359Z,101696.00
2022-11-10T04:15:05.380Z,101691.13
2022-11-10T04:20:07.312Z,101699.03
2022-11-10T04:25:08.908Z,101700.06
2022-11-10T04:30:10.688Z,101708.38
2022-11-10T04:35:12.206Z,101711.53
2022-11-10T04:40:13.683Z,101724.03
2022-11-10T04:45:15.207Z,101724.72
2022-11-10T04:50:16.733Z,101729.22
2022-11-10T04:55:18.205Z,101743.72
2022-11-10T05:00:20.146Z,101741.09
2022-11-10T05:05:21.754Z,101745.00
2022-11-10T05:10:23.664Z,101735.97
2022-11-10T05:15:25.817Z,101741.41
2022-11-10T05:20:27.939Z,101739.81
2022-11-10T05:25:29.400Z,101752.44
2022-11-10T05:30:31.150Z,101772.28
2022-11-10T05:35:32.826Z,101767.09
2022-11-10T05:40:34.551Z,101768.25
2022-11-10T05:45:36.094Z,101761.50
2022-11-10T05:50:37.555Z,101786.03
2022-11-10T05:55:39.092Z,101791.66
2022-11-10T06:00:40.633Z,101805.28
2022-11-10T06:05:42.125Z,101812.03
2022-11-10T06:10:43.623Z,101812.44
2022-11-10T06:15:50.183Z,101827.84
2022-11-10T06:20:52.087Z,101821.38
2022-11-10T06:25:53.581Z,101821.06
2022-11-10T06:30:58.279Z,101838.75
2022-11-10T06:35:59.757Z,101830.44
2022-11-10T06:41:01.274Z,101842.47
2022-11-10T06:46:02.732Z,101870.59
2022-11-10T06:51:04.347Z,101887.13
2022-11-10T06:56:06.326Z,101862.56
2022-11-10T07:01:07.835Z,101863.16
2022-11-10T07:06:09.314Z,101865.63
2022-11-10T07:11:10.844Z,101872.63
2022-11-10T07:16:12.562Z,101877.25
2022-11-10T07:21:14.108Z,101879.97
2022-11-10T07:26:15.570Z,101885.28
2022-11-10T07:31:17.054Z,101891.47
2022-11-10T07:36:18.530Z,101893.88
2022-11-10T07:41:20.116Z,101907.44
2022-11-10T07:46:21.570Z,101912.91
2022-11-10T07:51:23.152Z,101919.94
2022-11-10T07:56:24.633Z,101907.47
2022-11-10T08:01:26.163Z,101921.56
2022-11-10T08:06:29.277Z,101925.88
2022-11-10T08:11:32.614Z,101932.50
2022-11-10T08:16:34.132Z,101944.56
2022-11-10T08:21:35.691Z,101937.50
2022-11-10T08:26:37.380Z,101958.06
2022-11-10T08:31:41.365Z,101959.59
2022-11-10T08:36:42.863Z,101971.81
2022-11-10T08:41:44.490Z,101987.75
2022-11-10T08:46:47.047Z,101995.81
2022-11-10T08:51:48.605Z,101991.25
2022-11-10T08:56:50.139Z,101986.81
2022-11-10T09:01:51.615Z,101992.00
2022-11-10T09:06:53.098Z,101999.50
2022-11-10T09:11:54.677Z,101993.88
2022-11-10T09:16:56.461Z,101994.44
2022-11-10T09:21:57.955Z,102008.19
2022-11-10T09:26:59.452Z,102017.38
2022-11-10T09:32:00.943Z,102024.88
2022-11-10T09:37:02.381Z,102022.06
2022-11-10T09:42:27.534Z,102042.06
2022-11-10T09:53:00.850Z,102081.47
2022-11-10T09:58:02.657Z,102085.78
2022-11-10T10:03:06.151Z,102090.66
2022-11-10T10:08:11.814Z,102087.81
2022-11-10T10:13:31.131Z,102098.75
2022-11-10T10:18:46.911Z,102111.25
2022-11-10T10:24:19.798Z,102107.06
2022-11-10T10:29:23.099Z,102114.53
2022-11-10T10:34:30.210Z,102112.94
2022-11-10T10:39:42.487Z,102110.66
2022-11-10T10:45:13.648Z,102110.09
2022-11-10T10:50:25.864Z,102118.28
2022-11-10T10:55:29.919Z,102135.97
2022-11-10T11:00:33.182Z,102150.78
2022-11-10T11:05:34.645Z,102164.03
2022-11-10T11:10:43.960Z,102159.84
2022-11-10T11:16:00.247Z,102158.13
2022-11-10T11:21:20.257Z,102161.38
2022-11-10T11:26:39.914Z,102172.19
2022-11-10T11:32:01.390Z,102166.19
2022-11-10T11:37:19.165Z,102169.19
2022-11-10T11:42:47.015Z,102179.09
2022-11-10T11:48:07.957Z,102189.88
2022-11-10T11:53:40.227Z,102189.25
2022-11-10T11:58:45.841Z,102193.41
2022-11-10T12:04:25.131Z,102206.69
2022-11-10T12:09:31.711Z,102204.69
2022-11-10T12:14:40.881Z,102208.41
2022-11-10T12:20:03.270Z,102196.69
2022-11-10T12:25:16.208Z,102194.19
2022-11-10T12:30:18.508Z,102192.28
2022-11-10T12:35:24.448Z,102205.13
2022-11-10T12:40:31.466Z,102196.88
2022-11-10T12:45:46.973Z,102193.56
2022-11-10T12:51:13.046Z,102201.38
2022-11-10T12:56:23.559Z,102202.53
2022-11-10T13:01:25.089Z,102201.13
2022-11-10T13:06:36.636Z,102214.44
2022-11-10T13:11:39.892Z,102219.19
2022-11-10T13:16:41.326Z,102217.56
2022-11-10T13:21:51.591Z,102215.75
2022-11-10T13:26:55.342Z,102223.16
2022-11-10T13:31:58.707Z,102222.25
2022-11-10T13:37:01.257Z,102225.97
2022-11-10T13:42:18.621Z,102239.13
2022-11-10T13:47:35.163Z,102236.84
2022-11-10T13:52:39.311Z,102233.16
2022-11-10T13:57:57.326Z,102234.59
2022-11-10T14:03:03.215Z,102243.41
2022-11-10T14:08:25.800Z,102233.44
2022-11-10T14:13:42.767Z,102257.19
2022-11-10T14:19:06.165Z,102261.75
2022-11-10T14:24:16.629Z,102274.16
2022-11-10T14:29:25.180Z,102272.03
2022-11-10T14:34:27.095Z,102272.59
2022-11-10T14:39:35.380Z,102250.97
2022-11-10T14:44:36.863Z,102277.44
2022-11-10T14:49:38.426Z,102278.31
2022-11-10T14:54:45.553Z,102290.88
2022-11-10T14:59:47.412Z,102283.41
2022-11-10T15:04:51.529Z,102283.28
2022-11-10T15:10:13.551Z,102298.97
2022-11-10T15:15:22.340Z,102305.19
2022-11-10T15:20:40.986Z,102312.41
2022-11-10T15:25:42.602Z,102304.78
2022-11-10T15:30:56.808Z,102301.88
2022-11-10T15:36:27.789Z,102307.09
2022-11-10T15:41:32.288Z,102298.13
2022-11-10T15:46:33.808Z,102303.06
2022-11-10T15:51:35.271Z,102299.75
2022-11-10T15:56:36.756Z,102300.78
2022-11-10T16:01:38.610Z,102317.63
2022-11-10T16:06:41.565Z,102328.44
2022-11-10T16:11:44.729Z,102331.44
2022-11-10T16:16:46.303Z,102336.66
2022-11-10T16:21:47.792Z,102333.03
2022-11-10T16:26:49.266Z,102339.22
2022-11-10T16:31:50.773Z,102329.59
2022-11-10T16:36:52.288Z,102323.09
2022-11-10T16:41:53.731Z,102328.59
2022-11-10T16:46:57.266Z,102336.06
2022-11-10T16:51:58.822Z,102335.94
2022-11-10T16:57:00.346Z,102341.53
2022-11-10T17:02:02.929Z,102359.13
2022-11-10T17:07:13.056Z,102367.47
2022-11-10T17:12:14.947Z,102348.47
2022-11-10T17:17:19.437Z,102347.16
2022-11-10T17:22:22.813Z,102344.97
2022-11-10T17:27:26.259Z,102344.97
2022-11-10T17:32:50.051Z,102360.53
2022-11-10T17:37:52.085Z,102378.53
2022-11-10T17:42:53.618Z,102394.22
2022-11-10T17:47:55.165Z,102393.66
2022-11-10T17:52:56.833Z,102391.78
2022-11-10T17:57:58.362Z,102388.16
2022-11-10T18:03:00.638Z,102393.47
2022-11-10T18:08:02.161Z,102384.72
2022-11-10T18:13:03.641Z,102390.19
2022-11-10T18:18:05.140Z,102411.06
2022-11-10T18:23:08.304Z,102401.69
2022-11-10T18:28:13.691Z,102407.63
2022-11-10T18:33:15.213Z,102418.72
2022-11-10T18:38:16.718Z,102411.53
2022-11-10T18:43:18.220Z,102407.91
2022-11-10T18:48:22.242Z,102414.38
2022-11-10T18:53:27.126Z,102416.13
2022-11-10T18:58:28.705Z,102421.44
2022-11-10T19:03:30.181Z,102425.06
2022-11-10T19:08:31.660Z,102421.59
2022-11-10T19:13:33.358Z,102425.19
2022-11-10T19:18:35.555Z,102418.28
2022-11-10T19:23:37.425Z,102401.13
2022-11-10T19:28:39.452Z,102408.59
2022-11-10T19:33:43.846Z,102416.06
2022-11-10T19:38:45.810Z,102418.38
2022-11-10T19:43:47.849Z,102426.56
2022-11-10T19:48:49.610Z,102428.56
2022-11-10T19:54:02.953Z,102424.25
2022-11-10T19:59:04.498Z,102425.78
2022-11-10T20:04:08.501Z,102422.94
2022-11-10T20:09:10.064Z,102423.19
2022-11-10T20:14:11.507Z,102417.13
2022-11-10T20:19:13.009Z,102426.59
2022-11-10T20:24:14.785Z,102438.97
2022-11-10T20:29:16.250Z,102438.81
2022-11-10T20:34:17.717Z,102444.19
2022-11-10T20:39:19.209Z,102449.31
2022-11-10T20:44:20.746Z,102461.72
2022-11-10T20:49:22.192Z,102474.38
2022-11-10T20:54:23.643Z,102488.34
2022-11-10T20:59:25.158Z,102500.00
2022-11-10T21:04:26.647Z,102496.13
2022-11-10T21:09:29.392Z,102505.91
2022-11-10T21:14:30.863Z,102497.88
2022-11-10T21:19:34.059Z,102513.72
2022-11-10T21:24:35.598Z,102507.25
2022-11-10T21:29:37.072Z,102494.31
2022-11-10T21:34:38.517Z,102508.72
2022-11-10T21:39:40.720Z,102520.50
2022-11-10T21:44:42.200Z,102498.06
2022-11-10T21:49:43.680Z,102512.19
2022-11-10T21:54:45.167Z,102502.38
2022-11-10T21:59:46.677Z,102490.72
2022-11-10T22:04:48.189Z,102486.81
2022-11-10T22:10:13.942Z,102496.03
2022-11-10T22:15:34.313Z,102497.19
2022-11-10T22:20:35.818Z,102474.72
2022-11-10T22:25:38.078Z,102484.78
2022-11-10T22:30:39.539Z,102498.00
2022-11-10T22:35:43.533Z,102489.34
2022-11-10T22:41:03.562Z,102493.34
2022-11-10T22:46:05.175Z,102528.03
2022-11-10T22:51:06.679Z,102517.81
2022-11-10T22:56:08.266Z,102530.47
2022-11-10T23:01:11.565Z,102537.72
2022-11-10T23:06:13.122Z,102541.16
2022-11-10T23:11:17.439Z,102534.81
2022-11-10T23:16:21.378Z,102548.34
2022-11-10T23:21:26.749Z,102547.50
2022-11-10T23:26:30.166Z,102550.22
2022-11-10T23:31:31.687Z,102545.00
2022-11-10T23:36:33.159Z,102546.63
2022-11-10T23:41:34.612Z,102548.66
2022-11-10T23:46:36.171Z,102563.91
2022-11-10T23:51:37.638Z,102568.97
2022-11-10T23:56:39.093Z,102569.44
